sensor_id;sensor_type;location;lat;lon;timestamp;P1;durP1;ratioP1;P2;durP2;ratioP2
22571;SDS011;11452;53.368;14.658;2023-07-20T00:03:20;3.23;;;1.83;;
22571;SDS011;11452;53.368;14.658;2023-07-20T00:08:27;2.47;;;1.73;;
22571;SDS011;11452;53.368;14.658;2023-07-20T00:13:33;2.17;;;2.00;;
22571;SDS011;11452;53.368;14.658;2023-07-20T00:18:39;2.07;;;1.50;;
22571;SDS011;11452;53.368;14.658;2023-07-20T00:23:44;2.53;;;1.50;;
22571;SDS011;11452;53.368;14.658;2023-07-20T00:28:50;2.87;;;1.97;;
22571;SDS011;11452;53.368;14.658;2023-07-20T00:33:56;2.27;;;1.87;;
22571;SDS011;11452;53.368;14.658;2023-07-20T00:39:02;2.63;;;1.60;;
22571;SDS011;11452;53.368;14.658;2023-07-20T00:44:10;2.87;;;1.90;;
22571;SDS011;11452;53.368;14.658;2023-07-20T00:49:16;2.20;;;1.70;;
22571;SDS011;11452;53.368;14.658;2023-07-20T00:54:25;1.90;;;1.80;;
22571;SDS011;11452;53.368;14.658;2023-07-20T00:59:32;3.47;;;1.87;;
22571;SDS011;11452;53.368;14.658;2023-07-20T01:04:39;1.67;;;1.57;;
22571;SDS011;11452;53.368;14.658;2023-07-20T01:09:52;2.70;;;1.47;;
22571;SDS011;11452;53.368;14.658;2023-07-20T01:15:04;1.80;;;1.57;;
22571;SDS011;11452;53.368;14.658;2023-07-20T01:20:14;2.97;;;2.20;;
22571;SDS011;11452;53.368;14.658;2023-07-20T01:30:59;1.73;;;1.63;;
22571;SDS011;11452;53.368;14.658;2023-07-20T01:36:22;2.00;;;1.90;;
22571;SDS011;11452;53.368;14.658;2023-07-20T01:41:27;2.87;;;2.20;;
22571;SDS011;11452;53.368;14.658;2023-07-20T01:46:32;3.00;;;2.10;;
22571;SDS011;11452;53.368;14.658;2023-07-20T01:51:38;3.10;;;2.20;;
22571;SDS011;11452;53.368;14.658;2023-07-20T01:56:45;2.00;;;1.90;;
22571;SDS011;11452;53.368;14.658;2023-07-20T02:01:51;2.47;;;2.27;;
22571;SDS011;11452;53.368;14.658;2023-07-20T02:06:57;2.20;;;2.00;;
22571;SDS011;11452;53.368;14.658;2023-07-20T02:12:04;2.47;;;1.90;;
22571;SDS011;11452;53.368;14.658;2023-07-20T02:17:10;2.67;;;1.97;;
22571;SDS011;11452;53.368;14.658;2023-07-20T02:22:16;2.87;;;2.10;;
22571;SDS011;11452;53.368;14.658;2023-07-20T02:27:22;3.90;;;2.20;;
22571;SDS011;11452;53.368;14.658;2023-07-20T02:32:28;2.40;;;2.20;;
22571;SDS011;11452;53.368;14.658;2023-07-20T02:37:35;2.30;;;2.10;;
22571;SDS011;11452;53.368;14.658;2023-07-20T02:42:41;2.77;;;2.57;;
22571;SDS011;11452;53.368;14.658;2023-07-20T02:47:47;2.37;;;2.17;;
22571;SDS011;11452;53.368;14.658;2023-07-20T02:52:53;2.70;;;2.27;;
22571;SDS011;11452;53.368;14.658;2023-07-20T02:57:59;2.77;;;2.30;;
22571;SDS011;11452;53.368;14.658;2023-07-20T03:03:04;2.47;;;2.27;;
22571;SDS011;11452;53.368;14.658;2023-07-20T03:08:12;3.53;;;2.47;;
22571;SDS011;11452;53.368;14.658;2023-07-20T03:13:18;2.70;;;2.50;;
22571;SDS011;11452;53.368;14.658;2023-07-20T03:18:24;3.10;;;2.30;;
22571;SDS011;11452;53.368;14.658;2023-07-20T03:23:30;2.83;;;2.20;;
22571;SDS011;11452;53.368;14.658;2023-07-20T03:28:37;2.47;;;2.33;;
22571;SDS011;11452;53.368;14.658;2023-07-20T03:33:45;2.57;;;2.37;;
22571;SDS011;11452;53.368;14.658;2023-07-20T03:38:51;3.30;;;2.53;;
22571;SDS011;11452;53.368;14.658;2023-07-20T03:43:56;2.40;;;2.17;;
22571;SDS011;11452;53.368;14.658;2023-07-20T03:49:02;2.40;;;2.00;;
22571;SDS011;11452;53.368;14.658;2023-07-20T03:54:09;3.33;;;2.13;;
22571;SDS011;11452;53.368;14.658;2023-07-20T03:59:15;2.00;;;1.80;;
22571;SDS011;11452;53.368;14.658;2023-07-20T04:04:21;2.63;;;2.00;;
22571;SDS011;11452;53.368;14.658;2023-07-20T04:09:27;2.70;;;2.50;;
22571;SDS011;11452;53.368;14.658;2023-07-20T04:14:33;2.30;;;2.10;;
22571;SDS011;11452;53.368;14.658;2023-07-20T04:19:38;2.70;;;2.50;;
22571;SDS011;11452;53.368;14.658;2023-07-20T04:24:45;2.50;;;2.30;;
22571;SDS011;11452;53.368;14.658;2023-07-20T04:29:51;2.83;;;2.63;;
22571;SDS011;11452;53.368;14.658;2023-07-20T04:34:57;2.50;;;2.30;;
22571;SDS011;11452;53.368;14.658;2023-07-20T04:40:05;1.97;;;1.83;;
22571;SDS011;11452;53.368;14.658;2023-07-20T04:45:12;3.40;;;2.10;;
22571;SDS011;11452;53.368;14.658;2023-07-20T04:50:18;2.70;;;2.50;;
22571;SDS011;11452;53.368;14.658;2023-07-20T04:55:24;3.10;;;2.80;;
22571;SDS011;11452;53.368;14.658;2023-07-20T05:00:31;4.13;;;2.60;;
22571;SDS011;11452;53.368;14.658;2023-07-20T05:05:38;2.90;;;2.10;;
22571;SDS011;11452;53.368;14.658;2023-07-20T05:10:44;2.50;;;2.30;;
22571;SDS011;11452;53.368;14.658;2023-07-20T05:15:53;2.47;;;1.73;;
22571;SDS011;11452;53.368;14.658;2023-07-20T05:20:59;2.10;;;1.90;;
22571;SDS011;11452;53.368;14.658;2023-07-20T05:26:04;2.33;;;1.70;;
22571;SDS011;11452;53.368;14.658;2023-07-20T05:31:10;3.10;;;2.00;;
22571;SDS011;11452;53.368;14.658;2023-07-20T05:36:16;4.07;;;2.10;;
22571;SDS011;11452;53.368;14.658;2023-07-20T05:41:22;2.93;;;2.73;;
22571;SDS011;11452;53.368;14.658;2023-07-20T05:46:28;3.17;;;2.40;;
22571;SDS011;11452;53.368;14.658;2023-07-20T05:51:35;2.93;;;2.10;;
22571;SDS011;11452;53.368;14.658;2023-07-20T05:56:43;2.47;;;2.27;;
22571;SDS011;11452;53.368;14.658;2023-07-20T06:01:48;2.30;;;2.10;;
22571;SDS011;11452;53.368;14.658;2023-07-20T06:06:54;3.23;;;2.40;;
22571;SDS011;11452;53.368;14.658;2023-07-20T06:12:01;1.83;;;1.70;;
22571;SDS011;11452;53.368;14.658;2023-07-20T06:17:07;2.40;;;2.20;;
22571;SDS011;11452;53.368;14.658;2023-07-20T06:22:13;2.60;;;2.37;;
22571;SDS011;11452;53.368;14.658;2023-07-20T06:27:19;1.73;;;1.63;;
22571;SDS011;11452;53.368;14.658;2023-07-20T06:32:25;2.57;;;1.80;;
22571;SDS011;11452;53.368;14.658;2023-07-20T06:37:31;1.90;;;1.60;;
22571;SDS011;11452;53.368;14.658;2023-07-20T06:42:36;2.07;;;1.70;;
22571;SDS011;11452;53.368;14.658;2023-07-20T06:47:44;1.87;;;1.53;;
22571;SDS011;11452;53.368;14.658;2023-07-20T06:52:50;1.33;;;1.23;;
22571;SDS011;11452;53.368;14.658;2023-07-20T06:57:57;2.87;;;1.50;;
22571;SDS011;11452;53.368;14.658;2023-07-20T07:03:03;1.53;;;1.40;;
22571;SDS011;11452;53.368;14.658;2023-07-20T07:08:09;1.70;;;0.90;;
22571;SDS011;11452;53.368;14.658;2023-07-20T07:13:15;1.20;;;1.10;;
22571;SDS011;11452;53.368;14.658;2023-07-20T07:18:21;1.20;;;1.10;;
22571;SDS011;11452;53.368;14.658;2023-07-20T07:23:28;0.80;;;0.80;;
22571;SDS011;11452;53.368;14.658;2023-07-20T07:28:34;1.30;;;1.00;;
22571;SDS011;11452;53.368;14.658;2023-07-20T07:33:40;1.43;;;1.07;;
22571;SDS011;11452;53.368;14.658;2023-07-20T07:38:46;6.13;;;1.30;;
22571;SDS011;11452;53.368;14.658;2023-07-20T07:43:54;1.80;;;0.80;;
22571;SDS011;11452;53.368;14.658;2023-07-20T07:49:00;2.17;;;1.10;;
22571;SDS011;11452;53.368;14.658;2023-07-20T07:54:06;1.23;;;1.10;;
22571;SDS011;11452;53.368;14.658;2023-07-20T07:59:12;0.90;;;0.80;;
22571;SDS011;11452;53.368;14.658;2023-07-20T08:04:18;1.53;;;1.03;;
22571;SDS011;11452;53.368;14.658;2023-07-20T08:09:24;3.20;;;1.33;;
22571;SDS011;11452;53.368;14.658;2023-07-20T08:14:30;5.10;;;1.27;;
22571;SDS011;11452;53.368;14.658;2023-07-20T08:19:36;3.63;;;1.27;;
22571;SDS011;11452;53.368;14.658;2023-07-20T08:24:44;2.00;;;1.03;;
22571;SDS011;11452;53.368;14.658;2023-07-20T08:29:50;1.83;;;1.00;;
22571;SDS011;11452;53.368;14.658;2023-07-20T08:34:56;2.83;;;1.07;;
22571;SDS011;11452;53.368;14.658;2023-07-20T08:40:01;1.20;;;1.10;;
22571;SDS011;11452;53.368;14.658;2023-07-20T08:45:08;1.20;;;1.00;;
22571;SDS011;11452;53.368;14.658;2023-07-20T08:50:16;2.10;;;1.20;;
22571;SDS011;11452;53.368;14.658;2023-07-20T08:55:22;1.40;;;0.93;;
22571;SDS011;11452;53.368;14.658;2023-07-20T09:00:29;1.63;;;1.00;;
22571;SDS011;11452;53.368;14.658;2023-07-20T09:05:35;0.87;;;0.80;;
22571;SDS011;11452;53.368;14.658;2023-07-20T09:10:44;2.00;;;0.90;;
22571;SDS011;11452;53.368;14.658;2023-07-20T09:15:53;0.70;;;0.70;;
22571;SDS011;11452;53.368;14.658;2023-07-20T09:21:03;1.77;;;0.93;;
22571;SDS011;11452;53.368;14.658;2023-07-20T09:26:10;0.63;;;0.63;;
22571;SDS011;11452;53.368;14.658;2023-07-20T09:31:20;0.87;;;0.60;;
22571;SDS011;11452;53.368;14.658;2023-07-20T09:36:27;0.97;;;0.70;;
22571;SDS011;11452;53.368;14.658;2023-07-20T09:41:40;2.87;;;0.50;;
22571;SDS011;11452;53.368;14.658;2023-07-20T09:46:48;0.80;;;0.70;;
22571;SDS011;11452;53.368;14.658;2023-07-20T09:51:59;0.63;;;0.63;;
22571;SDS011;11452;53.368;14.658;2023-07-20T09:57:07;1.17;;;0.90;;
22571;SDS011;11452;53.368;14.658;2023-07-20T10:02:20;1.33;;;0.70;;
22571;SDS011;11452;53.368;14.658;2023-07-20T10:07:31;2.90;;;0.83;;
22571;SDS011;11452;53.368;14.658;2023-07-20T10:12:42;1.20;;;0.70;;
22571;SDS011;11452;53.368;14.658;2023-07-20T10:17:57;0.67;;;0.67;;
22571;SDS011;11452;53.368;14.658;2023-07-20T10:23:12;2.40;;;1.00;;
22571;SDS011;11452;53.368;14.658;2023-07-20T10:28:18;2.00;;;0.90;;
22571;SDS011;11452;53.368;14.658;2023-07-20T10:33:26;2.57;;;0.93;;
22571;SDS011;11452;53.368;14.658;2023-07-20T10:44:03;2.63;;;0.80;;
22571;SDS011;11452;53.368;14.658;2023-07-20T10:49:11;1.93;;;0.70;;
22571;SDS011;11452;53.368;14.658;2023-07-20T11:04:38;1.03;;;0.70;;
22571;SDS011;11452;53.368;14.658;2023-07-20T11:09:44;0.70;;;0.70;;
22571;SDS011;11452;53.368;14.658;2023-07-20T11:14:53;0.67;;;0.60;;
22571;SDS011;11452;53.368;14.658;2023-07-20T11:20:02;0.60;;;0.47;;
22571;SDS011;11452;53.368;14.658;2023-07-20T11:25:10;1.13;;;0.60;;
22571;SDS011;11452;53.368;14.658;2023-07-20T11:30:16;0.70;;;0.70;;
22571;SDS011;11452;53.368;14.658;2023-07-20T11:35:22;1.23;;;0.60;;
22571;SDS011;11452;53.368;14.658;2023-07-20T11:40:29;0.50;;;0.50;;
22571;SDS011;11452;53.368;14.658;2023-07-20T11:45:35;0.53;;;0.50;;
22571;SDS011;11452;53.368;14.658;2023-07-20T11:50:42;1.13;;;0.53;;
22571;SDS011;11452;53.368;14.658;2023-07-20T11:55:48;0.50;;;0.50;;
22571;SDS011;11452;53.368;14.658;2023-07-20T12:00:54;0.80;;;0.60;;
22571;SDS011;11452;53.368;14.658;2023-07-20T12:06:13;0.73;;;0.47;;
22571;SDS011;11452;53.368;14.658;2023-07-20T12:11:14;0.97;;;0.50;;
22571;SDS011;11452;53.368;14.658;2023-07-20T12:16:26;1.07;;;0.50;;
22571;SDS011;11452;53.368;14.658;2023-07-20T12:21:31;0.40;;;0.40;;
22571;SDS011;11452;53.368;14.658;2023-07-20T12:26:41;1.90;;;0.50;;
22571;SDS011;11452;53.368;14.658;2023-07-20T12:31:47;0.60;;;0.60;;
22571;SDS011;11452;53.368;14.658;2023-07-20T12:36:53;0.53;;;0.47;;
22571;SDS011;11452;53.368;14.658;2023-07-20T12:42:00;0.63;;;0.60;;
22571;SDS011;11452;53.368;14.658;2023-07-20T12:47:05;0.60;;;0.57;;
22571;SDS011;11452;53.368;14.658;2023-07-20T12:52:11;0.63;;;0.60;;
22571;SDS011;11452;53.368;14.658;2023-07-20T12:57:17;0.50;;;0.50;;
22571;SDS011;11452;53.368;14.658;2023-07-20T13:02:23;1.63;;;0.60;;
22571;SDS011;11452;53.368;14.658;2023-07-20T13:07:29;0.77;;;0.60;;
22571;SDS011;11452;53.368;14.658;2023-07-20T13:12:38;2.03;;;0.80;;
22571;SDS011;11452;53.368;14.658;2023-07-20T13:17:44;0.67;;;0.50;;
22571;SDS011;11452;53.368;14.658;2023-07-20T13:22:51;0.60;;;0.60;;
22571;SDS011;11452;53.368;14.658;2023-07-20T13:27:56;1.00;;;0.67;;
22571;SDS011;11452;53.368;14.658;2023-07-20T13:33:02;1.57;;;0.60;;
22571;SDS011;11452;53.368;14.658;2023-07-20T13:38:10;0.70;;;0.70;;
22571;SDS011;11452;53.368;14.658;2023-07-20T13:43:16;2.37;;;0.90;;
22571;SDS011;11452;53.368;14.658;2023-07-20T13:48:21;0.73;;;0.73;;
22571;SDS011;11452;53.368;14.658;2023-07-20T13:53:29;1.43;;;0.67;;
22571;SDS011;11452;53.368;14.658;2023-07-20T13:58:36;1.10;;;0.60;;
22571;SDS011;11452;53.368;14.658;2023-07-20T14:03:43;0.70;;;0.63;;
22571;SDS011;11452;53.368;14.658;2023-07-20T14:08:50;0.40;;;0.40;;
22571;SDS011;11452;53.368;14.658;2023-07-20T14:13:57;1.57;;;0.53;;
22571;SDS011;11452;53.368;14.658;2023-07-20T14:19:02;0.70;;;0.60;;
22571;SDS011;11452;53.368;14.658;2023-07-20T14:24:09;1.10;;;0.70;;
22571;SDS011;11452;53.368;14.658;2023-07-20T14:29:14;1.07;;;0.73;;
22571;SDS011;11452;53.368;14.658;2023-07-20T14:34:21;0.90;;;0.90;;
22571;SDS011;11452;53.368;14.658;2023-07-20T14:39:27;0.70;;;0.70;;
22571;SDS011;11452;53.368;14.658;2023-07-20T14:44:33;2.87;;;0.70;;
22571;SDS011;11452;53.368;14.658;2023-07-20T14:49:40;1.80;;;0.57;;
22571;SDS011;11452;53.368;14.658;2023-07-20T14:54:47;1.20;;;0.70;;
22571;SDS011;11452;53.368;14.658;2023-07-20T14:59:53;0.80;;;0.80;;
22571;SDS011;11452;53.368;14.658;2023-07-20T15:04:58;1.07;;;0.90;;
22571;SDS011;11452;53.368;14.658;2023-07-20T15:10:06;1.23;;;0.97;;
22571;SDS011;11452;53.368;14.658;2023-07-20T15:15:13;1.63;;;0.90;;
22571;SDS011;11452;53.368;14.658;2023-07-20T15:20:19;0.90;;;0.70;;
22571;SDS011;11452;53.368;14.658;2023-07-20T15:25:26;1.20;;;0.83;;
22571;SDS011;11452;53.368;14.658;2023-07-20T15:30:32;1.73;;;1.07;;
22571;SDS011;11452;53.368;14.658;2023-07-20T15:35:40;2.53;;;1.10;;
22571;SDS011;11452;53.368;14.658;2023-07-20T15:40:46;2.13;;;1.00;;
22571;SDS011;11452;53.368;14.658;2023-07-20T15:51:08;1.43;;;1.00;;
22571;SDS011;11452;53.368;14.658;2023-07-20T15:56:14;1.97;;;1.00;;
22571;SDS011;11452;53.368;14.658;2023-07-20T16:01:20;1.90;;;1.00;;
22571;SDS011;11452;53.368;14.658;2023-07-20T16:06:27;1.07;;;1.00;;
22571;SDS011;11452;53.368;14.658;2023-07-20T16:11:33;1.43;;;1.33;;
22571;SDS011;11452;53.368;14.658;2023-07-20T16:16:40;2.73;;;1.40;;
22571;SDS011;11452;53.368;14.658;2023-07-20T16:21:46;2.60;;;1.40;;
22571;SDS011;11452;53.368;14.658;2023-07-20T16:26:52;1.30;;;1.20;;
22571;SDS011;11452;53.368;14.658;2023-07-20T16:31:58;1.57;;;1.37;;
22571;SDS011;11452;53.368;14.658;2023-07-20T16:37:05;1.53;;;1.43;;
22571;SDS011;11452;53.368;14.658;2023-07-20T16:42:13;2.00;;;1.47;;
22571;SDS011;11452;53.368;14.658;2023-07-20T16:47:19;1.50;;;1.40;;
22571;SDS011;11452;53.368;14.658;2023-07-20T16:52:25;2.00;;;1.27;;
22571;SDS011;11452;53.368;14.658;2023-07-20T16:57:32;2.27;;;1.40;;
22571;SDS011;11452;53.368;14.658;2023-07-20T17:02:38;1.33;;;1.20;;
22571;SDS011;11452;53.368;14.658;2023-07-20T17:07:45;2.63;;;1.10;;
22571;SDS011;11452;53.368;14.658;2023-07-20T17:12:51;1.10;;;1.10;;
22571;SDS011;11452;53.368;14.658;2023-07-20T17:17:57;1.27;;;1.17;;
22571;SDS011;11452;53.368;14.658;2023-07-20T17:23:03;1.30;;;1.17;;
22571;SDS011;11452;53.368;14.658;2023-07-20T17:28:09;1.30;;;1.20;;
22571;SDS011;11452;53.368;14.658;2023-07-20T17:33:16;1.00;;;1.00;;
22571;SDS011;11452;53.368;14.658;2023-07-20T17:38:22;1.37;;;1.00;;
22571;SDS011;11452;53.368;14.658;2023-07-20T17:43:30;1.20;;;0.90;;
22571;SDS011;11452;53.368;14.658;2023-07-20T17:48:36;1.20;;;1.10;;
22571;SDS011;11452;53.368;14.658;2023-07-20T17:53:42;1.03;;;1.00;;
22571;SDS011;11452;53.368;14.658;2023-07-20T17:58:48;2.57;;;1.07;;
22571;SDS011;11452;53.368;14.658;2023-07-20T18:03:54;1.43;;;0.93;;
22571;SDS011;11452;53.368;14.658;2023-07-20T18:09:00;1.20;;;1.10;;
22571;SDS011;11452;53.368;14.658;2023-07-20T18:14:06;1.20;;;1.10;;
22571;SDS011;11452;53.368;14.658;2023-07-20T18:19:11;2.13;;;1.07;;
22571;SDS011;11452;53.368;14.658;2023-07-20T18:24:17;3.40;;;1.30;;
22571;SDS011;11452;53.368;14.658;2023-07-20T18:29:24;0.80;;;0.70;;
22571;SDS011;11452;53.368;14.658;2023-07-20T18:34:32;1.43;;;1.00;;
22571;SDS011;11452;53.368;14.658;2023-07-20T18:39:39;0.70;;;0.70;;
22571;SDS011;11452;53.368;14.658;2023-07-20T18:44:47;0.90;;;0.90;;
22571;SDS011;11452;53.368;14.658;2023-07-20T18:49:55;1.80;;;1.00;;
22571;SDS011;11452;53.368;14.658;2023-07-20T18:55:01;2.70;;;0.90;;
22571;SDS011;11452;53.368;14.658;2023-07-20T19:00:07;0.80;;;0.80;;
22571;SDS011;11452;53.368;14.658;2023-07-20T19:05:27;1.30;;;1.00;;
22571;SDS011;11452;53.368;14.658;2023-07-20T19:10:33;1.07;;;0.90;;
22571;SDS011;11452;53.368;14.658;2023-07-20T19:15:47;0.67;;;0.67;;
22571;SDS011;11452;53.368;14.658;2023-07-20T19:20:59;0.70;;;0.70;;
22571;SDS011;11452;53.368;14.658;2023-07-20T19:26:08;0.80;;;0.80;;
22571;SDS011;11452;53.368;14.658;2023-07-20T19:31:16;0.73;;;0.73;;
22571;SDS011;11452;53.368;14.658;2023-07-20T19:36:22;1.17;;;0.80;;
22571;SDS011;11452;53.368;14.658;2023-07-20T19:41:28;2.00;;;0.80;;
22571;SDS011;11452;53.368;14.658;2023-07-20T19:46:34;1.83;;;0.90;;
22571;SDS011;11452;53.368;14.658;2023-07-20T19:51:41;2.03;;;0.87;;
22571;SDS011;11452;53.368;14.658;2023-07-20T19:56:48;1.37;;;1.03;;
22571;SDS011;11452;53.368;14.658;2023-07-20T20:01:54;3.40;;;1.17;;
22571;SDS011;11452;53.368;14.658;2023-07-20T20:07:00;1.50;;;0.63;;
22571;SDS011;11452;53.368;14.658;2023-07-20T20:12:08;2.50;;;1.00;;
22571;SDS011;11452;53.368;14.658;2023-07-20T20:17:16;2.20;;;0.90;;
22571;SDS011;11452;53.368;14.658;2023-07-20T20:22:23;3.07;;;0.70;;
22571;SDS011;11452;53.368;14.658;2023-07-20T20:27:29;2.87;;;1.10;;
22571;SDS011;11452;53.368;14.658;2023-07-20T20:32:35;1.83;;;0.93;;
22571;SDS011;11452;53.368;14.658;2023-07-20T20:37:42;0.83;;;0.80;;
22571;SDS011;11452;53.368;14.658;2023-07-20T20:42:49;1.23;;;0.70;;
22571;SDS011;11452;53.368;14.658;2023-07-20T20:47:54;3.53;;;1.00;;
22571;SDS011;11452;53.368;14.658;2023-07-20T20:53:02;3.00;;;0.70;;
22571;SDS011;11452;53.368;14.658;2023-07-20T20:58:08;1.63;;;1.00;;
22571;SDS011;11452;53.368;14.658;2023-07-20T21:03:14;1.80;;;0.70;;
22571;SDS011;11452;53.368;14.658;2023-07-20T21:08:20;1.37;;;0.60;;
22571;SDS011;11452;53.368;14.658;2023-07-20T21:13:27;1.83;;;0.70;;
22571;SDS011;11452;53.368;14.658;2023-07-20T21:18:33;0.70;;;0.67;;
22571;SDS011;11452;53.368;14.658;2023-07-20T21:23:39;2.67;;;0.90;;
22571;SDS011;11452;53.368;14.658;2023-07-20T21:28:45;1.20;;;0.70;;
22571;SDS011;11452;53.368;14.658;2023-07-20T21:33:51;1.77;;;1.43;;
22571;SDS011;11452;53.368;14.658;2023-07-20T21:38:57;2.80;;;0.90;;
22571;SDS011;11452;53.368;14.658;2023-07-20T21:44:02;2.97;;;0.90;;
22571;SDS011;11452;53.368;14.658;2023-07-20T21:49:09;1.50;;;0.97;;
22571;SDS011;11452;53.368;14.658;2023-07-20T21:54:15;3.97;;;0.93;;
22571;SDS011;11452;53.368;14.658;2023-07-20T21:59:20;0.77;;;0.77;;
22571;SDS011;11452;53.368;14.658;2023-07-20T22:04:26;1.07;;;0.80;;
22571;SDS011;11452;53.368;14.658;2023-07-20T22:09:33;1.53;;;1.10;;
22571;SDS011;11452;53.368;14.658;2023-07-20T22:14:39;3.17;;;1.20;;
22571;SDS011;11452;53.368;14.658;2023-07-20T22:19:45;1.00;;;0.77;;
22571;SDS011;11452;53.368;14.658;2023-07-20T22:24:51;1.33;;;1.03;;
22571;SDS011;11452;53.368;14.658;2023-07-20T22:29:57;1.80;;;1.13;;
22571;SDS011;11452;53.368;14.658;2023-07-20T22:35:02;1.23;;;0.93;;
22571;SDS011;11452;53.368;14.658;2023-07-20T22:40:10;3.23;;;0.93;;
22571;SDS011;11452;53.368;14.658;2023-07-20T22:45:16;1.43;;;0.80;;
22571;SDS011;11452;53.368;14.658;2023-07-20T22:50:22;2.13;;;1.03;;
22571;SDS011;11452;53.368;14.658;2023-07-20T22:55:28;1.77;;;0.93;;
22571;SDS011;11452;53.368;14.658;2023-07-20T23:00:34;0.60;;;0.60;;
22571;SDS011;11452;53.368;14.658;2023-07-20T23:05:40;2.00;;;0.70;;
22571;SDS011;11452;53.368;14.658;2023-07-20T23:10:45;1.47;;;0.80;;
22571;SDS011;11452;53.368;14.658;2023-07-20T23:15:51;1.10;;;1.00;;
22571;SDS011;11452;53.368;14.658;2023-07-20T23:20:57;2.23;;;1.20;;
22571;SDS011;11452;53.368;14.658;2023-07-20T23:26:02;1.33;;;0.90;;
22571;SDS011;11452;53.368;14.658;2023-07-20T23:31:09;2.67;;;0.90;;
22571;SDS011;11452;53.368;14.658;2023-07-20T23:36:15;1.73;;;1.00;;
22571;SDS011;11452;53.368;14.658;2023-07-20T23:41:21;2.83;;;1.10;;
22571;SDS011;11452;53.368;14.658;2023-07-20T23:46:28;1.70;;;1.10;;
22571;SDS011;11452;53.368;14.658;2023-07-20T23:51:34;2.50;;;0.90;;
22571;SDS011;11452;53.368;14.658;2023-07-20T23:56:41;2.43;;;1.03;;
